sensor_id;sensor_type;location;lat;lon;timestamp;P1;durP1;ratioP1;P2;durP2;ratioP2
1206;SDS011;593;53.184;8.216;2024-01-10T00:01:22;12.20;;;9.17;;
1206;SDS011;593;53.184;8.216;2024-01-10T00:03:51;13.48;;;9.43;;
1206;SDS011;593;53.184;8.216;2024-01-10T00:06:17;16.45;;;9.65;;
1206;SDS011;593;53.184;8.216;2024-01-10T00:08:43;13.40;;;9.87;;
1206;SDS011;593;53.184;8.216;2024-01-10T00:11:08;15.57;;;10.17;;
1206;SDS011;593;53.184;8.216;2024-01-10T00:13:34;15.07;;;11.17;;
1206;SDS011;593;53.184;8.216;2024-01-10T00:15:59;17.83;;;10.33;;
1206;SDS011;593;53.184;8.216;2024-01-10T00:18:25;18.73;;;11.70;;
1206;SDS011;593;53.184;8.216;2024-01-10T00:20:53;14.57;;;10.90;;
1206;SDS011;593;53.184;8.216;2024-01-10T00:23:19;18.17;;;11.68;;
1206;SDS011;593;53.184;8.216;2024-01-10T00:25:45;23.05;;;12.60;;
1206;SDS011;593;53.184;8.216;2024-01-10T00:28:11;16.50;;;12.43;;
1206;SDS011;593;53.184;8.216;2024-01-10T00:30:37;24.40;;;14.47;;
1206;SDS011;593;53.184;8.216;2024-01-10T00:33:03;16.63;;;11.82;;
1206;SDS011;593;53.184;8.216;2024-01-10T00:35:29;22.13;;;12.50;;
1206;SDS011;593;53.184;8.216;2024-01-10T00:37:54;16.70;;;10.70;;
1206;SDS011;593;53.184;8.216;2024-01-10T00:40:19;17.70;;;12.17;;
1206;SDS011;593;53.184;8.216;2024-01-10T00:42:45;17.67;;;11.00;;
1206;SDS011;593;53.184;8.216;2024-01-10T00:45:10;22.27;;;12.70;;
1206;SDS011;593;53.184;8.216;2024-01-10T00:47:36;18.47;;;12.53;;
1206;SDS011;593;53.184;8.216;2024-01-10T00:50:01;15.13;;;11.10;;
1206;SDS011;593;53.184;8.216;2024-01-10T00:52:26;17.80;;;11.57;;
1206;SDS011;593;53.184;8.216;2024-01-10T00:54:52;14.37;;;10.97;;
1206;SDS011;593;53.184;8.216;2024-01-10T00:57:17;15.73;;;10.77;;
1206;SDS011;593;53.184;8.216;2024-01-10T00:59:42;15.13;;;10.13;;
1206;SDS011;593;53.184;8.216;2024-01-10T01:02:08;15.60;;;10.90;;
1206;SDS011;593;53.184;8.216;2024-01-10T01:04:33;16.93;;;11.30;;
1206;SDS011;593;53.184;8.216;2024-01-10T01:06:58;17.83;;;10.40;;
1206;SDS011;593;53.184;8.216;2024-01-10T01:09:24;18.60;;;11.20;;
1206;SDS011;593;53.184;8.216;2024-01-10T01:11:50;13.93;;;10.27;;
1206;SDS011;593;53.184;8.216;2024-01-10T01:14:16;15.20;;;10.17;;
1206;SDS011;593;53.184;8.216;2024-01-10T01:16:41;14.73;;;11.57;;
1206;SDS011;593;53.184;8.216;2024-01-10T01:19:07;16.60;;;10.40;;
1206;SDS011;593;53.184;8.216;2024-01-10T01:21:32;16.10;;;10.33;;
1206;SDS011;593;53.184;8.216;2024-01-10T01:23:58;13.67;;;10.13;;
1206;SDS011;593;53.184;8.216;2024-01-10T01:26:23;16.70;;;12.27;;
1206;SDS011;593;53.184;8.216;2024-01-10T01:28:49;15.57;;;11.20;;
1206;SDS011;593;53.184;8.216;2024-01-10T01:31:14;14.90;;;11.93;;
1206;SDS011;593;53.184;8.216;2024-01-10T01:33:39;17.03;;;11.00;;
1206;SDS011;593;53.184;8.216;2024-01-10T01:36:05;18.30;;;11.60;;
1206;SDS011;593;53.184;8.216;2024-01-10T01:38:31;16.23;;;10.77;;
1206;SDS011;593;53.184;8.216;2024-01-10T01:40:56;14.37;;;11.13;;
1206;SDS011;593;53.184;8.216;2024-01-10T01:43:23;17.93;;;11.30;;
1206;SDS011;593;53.184;8.216;2024-01-10T01:45:53;19.67;;;12.38;;
1206;SDS011;593;53.184;8.216;2024-01-10T01:48:19;16.98;;;11.52;;
1206;SDS011;593;53.184;8.216;2024-01-10T01:50:46;17.55;;;9.65;;
1206;SDS011;593;53.184;8.216;2024-01-10T01:53:13;14.60;;;10.27;;
1206;SDS011;593;53.184;8.216;2024-01-10T01:55:40;12.57;;;10.70;;
1206;SDS011;593;53.184;8.216;2024-01-10T01:58:07;16.98;;;12.02;;
1206;SDS011;593;53.184;8.216;2024-01-10T02:00:32;14.00;;;10.90;;
1206;SDS011;593;53.184;8.216;2024-01-10T02:02:59;14.52;;;10.75;;
1206;SDS011;593;53.184;8.216;2024-01-10T02:05:25;16.52;;;11.45;;
1206;SDS011;593;53.184;8.216;2024-01-10T02:07:51;17.87;;;12.87;;
1206;SDS011;593;53.184;8.216;2024-01-10T02:10:17;14.97;;;11.00;;
1206;SDS011;593;53.184;8.216;2024-01-10T02:12:44;17.20;;;10.98;;
1206;SDS011;593;53.184;8.216;2024-01-10T02:15:10;15.65;;;11.43;;
1206;SDS011;593;53.184;8.216;2024-01-10T02:17:36;20.33;;;13.35;;
1206;SDS011;593;53.184;8.216;2024-01-10T02:20:08;15.77;;;12.57;;
1206;SDS011;593;53.184;8.216;2024-01-10T02:22:37;18.65;;;11.68;;
1206;SDS011;593;53.184;8.216;2024-01-10T02:25:04;23.07;;;13.60;;
1206;SDS011;593;53.184;8.216;2024-01-10T02:27:33;15.70;;;10.80;;
1206;SDS011;593;53.184;8.216;2024-01-10T02:30:00;19.67;;;12.88;;
1206;SDS011;593;53.184;8.216;2024-01-10T02:32:27;17.95;;;13.75;;
1206;SDS011;593;53.184;8.216;2024-01-10T02:34:53;16.97;;;12.70;;
1206;SDS011;593;53.184;8.216;2024-01-10T02:37:18;15.80;;;11.67;;
1206;SDS011;593;53.184;8.216;2024-01-10T02:39:43;18.70;;;11.17;;
1206;SDS011;593;53.184;8.216;2024-01-10T02:42:09;19.10;;;12.00;;
1206;SDS011;593;53.184;8.216;2024-01-10T02:44:34;19.83;;;12.47;;
1206;SDS011;593;53.184;8.216;2024-01-10T02:47:00;16.50;;;11.37;;
1206;SDS011;593;53.184;8.216;2024-01-10T02:49:25;18.70;;;14.87;;
1206;SDS011;593;53.184;8.216;2024-01-10T02:51:50;17.33;;;12.10;;
1206;SDS011;593;53.184;8.216;2024-01-10T02:54:16;16.80;;;11.73;;
1206;SDS011;593;53.184;8.216;2024-01-10T02:56:41;19.03;;;13.30;;
1206;SDS011;593;53.184;8.216;2024-01-10T02:59:06;19.57;;;13.83;;
1206;SDS011;593;53.184;8.216;2024-01-10T03:01:32;17.40;;;11.70;;
1206;SDS011;593;53.184;8.216;2024-01-10T03:03:57;18.70;;;12.13;;
1206;SDS011;593;53.184;8.216;2024-01-10T03:06:23;17.87;;;11.33;;
1206;SDS011;593;53.184;8.216;2024-01-10T03:08:48;26.67;;;13.63;;
1206;SDS011;593;53.184;8.216;2024-01-10T03:11:15;16.98;;;13.13;;
1206;SDS011;593;53.184;8.216;2024-01-10T03:13:40;15.43;;;12.10;;
1206;SDS011;593;53.184;8.216;2024-01-10T03:16:06;18.00;;;13.20;;
1206;SDS011;593;53.184;8.216;2024-01-10T03:18:31;16.53;;;12.40;;
1206;SDS011;593;53.184;8.216;2024-01-10T03:20:57;17.10;;;12.90;;
1206;SDS011;593;53.184;8.216;2024-01-10T03:23:22;21.27;;;13.23;;
1206;SDS011;593;53.184;8.216;2024-01-10T03:25:47;19.40;;;12.60;;
1206;SDS011;593;53.184;8.216;2024-01-10T03:28:17;21.35;;;13.05;;
1206;SDS011;593;53.184;8.216;2024-01-10T03:30:43;16.55;;;11.00;;
1206;SDS011;593;53.184;8.216;2024-01-10T03:33:08;20.70;;;13.53;;
1206;SDS011;593;53.184;8.216;2024-01-10T03:35:34;17.27;;;11.27;;
1206;SDS011;593;53.184;8.216;2024-01-10T03:37:59;18.37;;;14.17;;
1206;SDS011;593;53.184;8.216;2024-01-10T03:40:24;19.37;;;13.90;;
1206;SDS011;593;53.184;8.216;2024-01-10T03:42:50;22.10;;;12.97;;
1206;SDS011;593;53.184;8.216;2024-01-10T03:45:16;18.07;;;12.43;;
1206;SDS011;593;53.184;8.216;2024-01-10T03:47:44;23.98;;;15.15;;
1206;SDS011;593;53.184;8.216;2024-01-10T03:50:11;21.80;;;14.25;;
1206;SDS011;593;53.184;8.216;2024-01-10T03:52:37;22.97;;;12.63;;
1206;SDS011;593;53.184;8.216;2024-01-10T03:55:02;27.60;;;16.43;;
1206;SDS011;593;53.184;8.216;2024-01-10T03:57:27;20.70;;;13.70;;
1206;SDS011;593;53.184;8.216;2024-01-10T03:59:53;22.10;;;12.30;;
1206;SDS011;593;53.184;8.216;2024-01-10T04:02:18;23.87;;;13.93;;
1206;SDS011;593;53.184;8.216;2024-01-10T04:04:44;21.17;;;13.37;;
1206;SDS011;593;53.184;8.216;2024-01-10T04:07:09;18.90;;;13.07;;
1206;SDS011;593;53.184;8.216;2024-01-10T04:09:35;21.40;;;12.97;;
1206;SDS011;593;53.184;8.216;2024-01-10T04:12:00;26.40;;;14.43;;
1206;SDS011;593;53.184;8.216;2024-01-10T04:14:26;20.33;;;15.03;;
1206;SDS011;593;53.184;8.216;2024-01-10T04:16:52;23.57;;;15.27;;
1206;SDS011;593;53.184;8.216;2024-01-10T04:19:18;25.15;;;14.07;;
1206;SDS011;593;53.184;8.216;2024-01-10T04:21:44;25.00;;;13.23;;
1206;SDS011;593;53.184;8.216;2024-01-10T04:24:09;17.87;;;12.43;;
1206;SDS011;593;53.184;8.216;2024-01-10T04:26:34;25.30;;;13.93;;
1206;SDS011;593;53.184;8.216;2024-01-10T04:29:00;24.13;;;14.10;;
1206;SDS011;593;53.184;8.216;2024-01-10T04:31:25;26.87;;;14.67;;
1206;SDS011;593;53.184;8.216;2024-01-10T04:33:50;21.60;;;12.30;;
1206;SDS011;593;53.184;8.216;2024-01-10T04:36:16;24.33;;;12.50;;
1206;SDS011;593;53.184;8.216;2024-01-10T04:38:41;25.10;;;13.87;;
1206;SDS011;593;53.184;8.216;2024-01-10T04:41:07;19.80;;;13.33;;
1206;SDS011;593;53.184;8.216;2024-01-10T04:43:32;24.37;;;12.40;;
1206;SDS011;593;53.184;8.216;2024-01-10T04:45:57;19.00;;;12.63;;
1206;SDS011;593;53.184;8.216;2024-01-10T04:48:23;22.03;;;14.10;;
1206;SDS011;593;53.184;8.216;2024-01-10T04:50:48;20.73;;;11.80;;
1206;SDS011;593;53.184;8.216;2024-01-10T04:53:13;21.67;;;14.23;;
1206;SDS011;593;53.184;8.216;2024-01-10T04:55:39;23.70;;;14.37;;
1206;SDS011;593;53.184;8.216;2024-01-10T04:58:04;27.37;;;14.17;;
1206;SDS011;593;53.184;8.216;2024-01-10T05:00:30;17.50;;;11.83;;
1206;SDS011;593;53.184;8.216;2024-01-10T05:02:55;23.07;;;12.60;;
1206;SDS011;593;53.184;8.216;2024-01-10T05:05:20;27.37;;;14.37;;
1206;SDS011;593;53.184;8.216;2024-01-10T05:07:48;24.75;;;13.77;;
1206;SDS011;593;53.184;8.216;2024-01-10T05:10:16;26.98;;;13.77;;
1206;SDS011;593;53.184;8.216;2024-01-10T05:12:41;20.57;;;13.47;;
1206;SDS011;593;53.184;8.216;2024-01-10T05:15:07;22.80;;;12.77;;
1206;SDS011;593;53.184;8.216;2024-01-10T05:17:33;22.70;;;14.63;;
1206;SDS011;593;53.184;8.216;2024-01-10T05:19:58;26.73;;;12.73;;
1206;SDS011;593;53.184;8.216;2024-01-10T05:22:24;19.90;;;11.67;;
1206;SDS011;593;53.184;8.216;2024-01-10T05:24:50;20.93;;;12.90;;
1206;SDS011;593;53.184;8.216;2024-01-10T05:27:15;20.83;;;13.30;;
1206;SDS011;593;53.184;8.216;2024-01-10T05:29:41;24.00;;;14.70;;
1206;SDS011;593;53.184;8.216;2024-01-10T05:32:06;29.87;;;14.80;;
1206;SDS011;593;53.184;8.216;2024-01-10T05:34:32;21.43;;;11.70;;
1206;SDS011;593;53.184;8.216;2024-01-10T05:36:57;28.03;;;13.80;;
1206;SDS011;593;53.184;8.216;2024-01-10T05:39:22;22.10;;;14.63;;
1206;SDS011;593;53.184;8.216;2024-01-10T05:41:48;27.77;;;13.83;;
1206;SDS011;593;53.184;8.216;2024-01-10T05:44:13;23.67;;;14.10;;
1206;SDS011;593;53.184;8.216;2024-01-10T05:46:40;20.13;;;12.40;;
1206;SDS011;593;53.184;8.216;2024-01-10T05:49:06;22.88;;;12.05;;
1206;SDS011;593;53.184;8.216;2024-01-10T05:51:32;25.77;;;13.13;;
1206;SDS011;593;53.184;8.216;2024-01-10T05:53:58;32.23;;;13.60;;
1206;SDS011;593;53.184;8.216;2024-01-10T05:56:24;24.40;;;13.47;;
1206;SDS011;593;53.184;8.216;2024-01-10T05:58:49;21.83;;;12.30;;
1206;SDS011;593;53.184;8.216;2024-01-10T06:01:16;21.53;;;10.97;;
1206;SDS011;593;53.184;8.216;2024-01-10T06:03:42;18.75;;;11.10;;
1206;SDS011;593;53.184;8.216;2024-01-10T06:06:09;18.80;;;11.17;;
1206;SDS011;593;53.184;8.216;2024-01-10T06:08:35;19.30;;;10.00;;
1206;SDS011;593;53.184;8.216;2024-01-10T06:11:02;19.57;;;10.40;;
1206;SDS011;593;53.184;8.216;2024-01-10T06:13:34;23.27;;;12.15;;
1206;SDS011;593;53.184;8.216;2024-01-10T06:16:00;20.63;;;12.00;;
1206;SDS011;593;53.184;8.216;2024-01-10T06:18:27;20.98;;;12.55;;
1206;SDS011;593;53.184;8.216;2024-01-10T06:20:53;21.27;;;12.43;;
1206;SDS011;593;53.184;8.216;2024-01-10T06:23:18;22.30;;;12.53;;
1206;SDS011;593;53.184;8.216;2024-01-10T06:25:44;29.43;;;13.00;;
1206;SDS011;593;53.184;8.216;2024-01-10T06:28:09;20.57;;;11.83;;
1206;SDS011;593;53.184;8.216;2024-01-10T06:30:35;23.07;;;11.20;;
1206;SDS011;593;53.184;8.216;2024-01-10T06:33:00;20.60;;;11.17;;
1206;SDS011;593;53.184;8.216;2024-01-10T06:35:26;23.77;;;12.40;;
1206;SDS011;593;53.184;8.216;2024-01-10T06:37:52;22.60;;;10.60;;
1206;SDS011;593;53.184;8.216;2024-01-10T06:40:18;26.03;;;11.83;;
1206;SDS011;593;53.184;8.216;2024-01-10T06:42:43;23.47;;;11.67;;
1206;SDS011;593;53.184;8.216;2024-01-10T06:45:10;24.48;;;12.30;;
1206;SDS011;593;53.184;8.216;2024-01-10T06:47:37;22.55;;;10.73;;
1206;SDS011;593;53.184;8.216;2024-01-10T06:50:05;23.13;;;12.10;;
1206;SDS011;593;53.184;8.216;2024-01-10T06:52:33;29.55;;;13.07;;
1206;SDS011;593;53.184;8.216;2024-01-10T06:54:59;26.40;;;12.13;;
1206;SDS011;593;53.184;8.216;2024-01-10T06:57:24;24.27;;;12.50;;
1206;SDS011;593;53.184;8.216;2024-01-10T06:59:50;19.47;;;9.83;;
1206;SDS011;593;53.184;8.216;2024-01-10T07:02:18;24.87;;;12.13;;
1206;SDS011;593;53.184;8.216;2024-01-10T07:04:44;29.05;;;10.50;;
1206;SDS011;593;53.184;8.216;2024-01-10T07:07:13;22.25;;;10.55;;
1206;SDS011;593;53.184;8.216;2024-01-10T07:09:38;26.57;;;11.13;;
1206;SDS011;593;53.184;8.216;2024-01-10T07:12:06;18.52;;;9.52;;
1206;SDS011;593;53.184;8.216;2024-01-10T07:14:32;20.23;;;9.68;;
1206;SDS011;593;53.184;8.216;2024-01-10T07:16:57;21.80;;;11.70;;
1206;SDS011;593;53.184;8.216;2024-01-10T07:19:23;29.73;;;11.90;;
1206;SDS011;593;53.184;8.216;2024-01-10T07:21:49;23.97;;;10.50;;
1206;SDS011;593;53.184;8.216;2024-01-10T07:24:15;20.27;;;11.10;;
1206;SDS011;593;53.184;8.216;2024-01-10T07:26:40;18.80;;;10.87;;
1206;SDS011;593;53.184;8.216;2024-01-10T07:29:06;21.33;;;10.57;;
1206;SDS011;593;53.184;8.216;2024-01-10T07:31:33;17.50;;;9.68;;
1206;SDS011;593;53.184;8.216;2024-01-10T07:33:59;22.33;;;10.57;;
1206;SDS011;593;53.184;8.216;2024-01-10T07:36:25;23.53;;;11.97;;
1206;SDS011;593;53.184;8.216;2024-01-10T07:38:58;19.60;;;10.70;;
1206;SDS011;593;53.184;8.216;2024-01-10T07:41:24;16.83;;;8.70;;
1206;SDS011;593;53.184;8.216;2024-01-10T07:43:50;20.80;;;10.07;;
1206;SDS011;593;53.184;8.216;2024-01-10T07:46:15;24.17;;;11.03;;
1206;SDS011;593;53.184;8.216;2024-01-10T07:48:41;18.10;;;9.67;;
1206;SDS011;593;53.184;8.216;2024-01-10T07:51:06;25.67;;;10.63;;
1206;SDS011;593;53.184;8.216;2024-01-10T07:53:32;18.20;;;9.43;;
1206;SDS011;593;53.184;8.216;2024-01-10T07:55:58;17.85;;;9.98;;
1206;SDS011;593;53.184;8.216;2024-01-10T07:58:24;18.53;;;10.73;;
1206;SDS011;593;53.184;8.216;2024-01-10T08:00:49;20.70;;;11.10;;
1206;SDS011;593;53.184;8.216;2024-01-10T08:03:16;17.67;;;8.10;;
1206;SDS011;593;53.184;8.216;2024-01-10T08:05:41;20.07;;;10.77;;
1206;SDS011;593;53.184;8.216;2024-01-10T08:08:07;16.57;;;8.53;;
1206;SDS011;593;53.184;8.216;2024-01-10T08:10:32;20.60;;;9.90;;
1206;SDS011;593;53.184;8.216;2024-01-10T08:12:58;21.20;;;9.60;;
1206;SDS011;593;53.184;8.216;2024-01-10T08:15:23;23.57;;;11.73;;
1206;SDS011;593;53.184;8.216;2024-01-10T08:17:48;23.93;;;12.10;;
1206;SDS011;593;53.184;8.216;2024-01-10T08:20:14;20.63;;;10.83;;
1206;SDS011;593;53.184;8.216;2024-01-10T08:22:44;18.95;;;11.13;;
1206;SDS011;593;53.184;8.216;2024-01-10T08:25:10;23.37;;;11.30;;
1206;SDS011;593;53.184;8.216;2024-01-10T08:27:36;23.00;;;11.70;;
1206;SDS011;593;53.184;8.216;2024-01-10T08:30:01;17.03;;;9.97;;
1206;SDS011;593;53.184;8.216;2024-01-10T08:32:29;18.17;;;10.00;;
1206;SDS011;593;53.184;8.216;2024-01-10T08:34:55;21.30;;;11.10;;
1206;SDS011;593;53.184;8.216;2024-01-10T08:37:20;19.30;;;10.03;;
1206;SDS011;593;53.184;8.216;2024-01-10T08:39:46;24.23;;;11.15;;
1206;SDS011;593;53.184;8.216;2024-01-10T08:42:12;16.17;;;9.67;;
1206;SDS011;593;53.184;8.216;2024-01-10T08:44:39;19.63;;;11.77;;
1206;SDS011;593;53.184;8.216;2024-01-10T08:47:04;21.40;;;10.73;;
1206;SDS011;593;53.184;8.216;2024-01-10T08:49:29;16.87;;;9.60;;
1206;SDS011;593;53.184;8.216;2024-01-10T08:51:55;20.53;;;11.30;;
1206;SDS011;593;53.184;8.216;2024-01-10T08:54:20;17.23;;;8.43;;
1206;SDS011;593;53.184;8.216;2024-01-10T08:56:47;18.85;;;10.25;;
1206;SDS011;593;53.184;8.216;2024-01-10T08:59:13;16.77;;;9.90;;
1206;SDS011;593;53.184;8.216;2024-01-10T09:01:38;20.97;;;11.83;;
1206;SDS011;593;53.184;8.216;2024-01-10T09:04:04;23.73;;;10.67;;
1206;SDS011;593;53.184;8.216;2024-01-10T09:06:33;19.75;;;11.18;;
1206;SDS011;593;53.184;8.216;2024-01-10T09:09:00;22.00;;;11.00;;
1206;SDS011;593;53.184;8.216;2024-01-10T09:11:26;15.13;;;8.93;;
1206;SDS011;593;53.184;8.216;2024-01-10T09:13:52;17.97;;;10.90;;
1206;SDS011;593;53.184;8.216;2024-01-10T09:16:18;19.20;;;10.05;;
1206;SDS011;593;53.184;8.216;2024-01-10T09:18:47;20.17;;;10.70;;
1206;SDS011;593;53.184;8.216;2024-01-10T09:21:14;16.90;;;10.52;;
1206;SDS011;593;53.184;8.216;2024-01-10T09:23:40;22.10;;;10.30;;
1206;SDS011;593;53.184;8.216;2024-01-10T09:26:06;22.40;;;10.40;;
1206;SDS011;593;53.184;8.216;2024-01-10T09:28:33;22.13;;;11.02;;
1206;SDS011;593;53.184;8.216;2024-01-10T09:30:59;20.37;;;11.03;;
1206;SDS011;593;53.184;8.216;2024-01-10T09:33:24;23.90;;;11.27;;
1206;SDS011;593;53.184;8.216;2024-01-10T09:35:50;17.43;;;10.60;;
1206;SDS011;593;53.184;8.216;2024-01-10T09:38:15;24.40;;;13.07;;
1206;SDS011;593;53.184;8.216;2024-01-10T09:40:42;18.63;;;10.30;;
1206;SDS011;593;53.184;8.216;2024-01-10T09:43:07;18.57;;;10.70;;
1206;SDS011;593;53.184;8.216;2024-01-10T09:45:36;18.10;;;10.00;;
1206;SDS011;593;53.184;8.216;2024-01-10T09:48:11;22.58;;;11.18;;
1206;SDS011;593;53.184;8.216;2024-01-10T09:50:38;15.18;;;11.10;;
1206;SDS011;593;53.184;8.216;2024-01-10T09:55:33;18.40;;;10.80;;
1206;SDS011;593;53.184;8.216;2024-01-10T09:58:07;22.90;;;10.95;;
1206;SDS011;593;53.184;8.216;2024-01-10T10:00:34;23.60;;;11.25;;
1206;SDS011;593;53.184;8.216;2024-01-10T10:03:03;15.07;;;9.32;;
1206;SDS011;593;53.184;8.216;2024-01-10T10:05:32;19.73;;;9.68;;
1206;SDS011;593;53.184;8.216;2024-01-10T10:07:59;20.08;;;11.25;;
1206;SDS011;593;53.184;8.216;2024-01-10T10:10:24;18.40;;;10.03;;
1206;SDS011;593;53.184;8.216;2024-01-10T10:12:53;16.50;;;9.33;;
1206;SDS011;593;53.184;8.216;2024-01-10T10:15:23;22.00;;;11.48;;
1206;SDS011;593;53.184;8.216;2024-01-10T10:17:51;16.95;;;8.90;;
1206;SDS011;593;53.184;8.216;2024-01-10T10:20:21;18.55;;;9.05;;
1206;SDS011;593;53.184;8.216;2024-01-10T10:23:02;16.40;;;9.70;;
1206;SDS011;593;53.184;8.216;2024-01-10T10:25:33;16.88;;;9.05;;
1206;SDS011;593;53.184;8.216;2024-01-10T10:28:00;17.58;;;8.40;;
1206;SDS011;593;53.184;8.216;2024-01-10T10:30:27;13.68;;;8.15;;
1206;SDS011;593;53.184;8.216;2024-01-10T10:32:53;13.77;;;8.32;;
1206;SDS011;593;53.184;8.216;2024-01-10T10:35:22;17.75;;;10.23;;
1206;SDS011;593;53.184;8.216;2024-01-10T10:37:51;15.60;;;7.47;;
1206;SDS011;593;53.184;8.216;2024-01-10T10:40:17;18.75;;;8.82;;
1206;SDS011;593;53.184;8.216;2024-01-10T10:42:44;17.65;;;8.85;;
1206;SDS011;593;53.184;8.216;2024-01-10T10:45:12;14.75;;;8.98;;
1206;SDS011;593;53.184;8.216;2024-01-10T10:47:47;19.65;;;9.02;;
1206;SDS011;593;53.184;8.216;2024-01-10T10:50:20;14.10;;;8.68;;
1206;SDS011;593;53.184;8.216;2024-01-10T10:52:48;20.85;;;9.60;;
1206;SDS011;593;53.184;8.216;2024-01-10T10:55:15;21.58;;;9.60;;
1206;SDS011;593;53.184;8.216;2024-01-10T10:57:43;17.42;;;8.93;;
1206;SDS011;593;53.184;8.216;2024-01-10T11:00:19;22.67;;;8.13;;
1206;SDS011;593;53.184;8.216;2024-01-10T11:02:47;20.17;;;9.70;;
1206;SDS011;593;53.184;8.216;2024-01-10T11:05:12;15.53;;;9.00;;
1206;SDS011;593;53.184;8.216;2024-01-10T11:07:39;17.50;;;10.67;;
1206;SDS011;593;53.184;8.216;2024-01-10T11:10:06;15.48;;;9.63;;
1206;SDS011;593;53.184;8.216;2024-01-10T11:21:00;13.80;;;7.82;;
1206;SDS011;593;53.184;8.216;2024-01-10T11:23:48;15.20;;;8.65;;
1206;SDS011;593;53.184;8.216;2024-01-10T11:26:16;12.52;;;7.57;;
1206;SDS011;593;53.184;8.216;2024-01-10T11:28:43;13.90;;;8.93;;
1206;SDS011;593;53.184;8.216;2024-01-10T11:31:09;13.02;;;7.65;;
1206;SDS011;593;53.184;8.216;2024-01-10T11:33:35;12.83;;;6.90;;
1206;SDS011;593;53.184;8.216;2024-01-10T11:36:16;14.85;;;7.25;;
1206;SDS011;593;53.184;8.216;2024-01-10T11:39:02;13.30;;;6.95;;
1206;SDS011;593;53.184;8.216;2024-01-10T11:41:33;17.15;;;8.32;;
1206;SDS011;593;53.184;8.216;2024-01-10T11:46:48;12.82;;;6.75;;
1206;SDS011;593;53.184;8.216;2024-01-10T11:49:16;11.65;;;6.80;;
1206;SDS011;593;53.184;8.216;2024-01-10T11:51:50;13.18;;;6.50;;
1206;SDS011;593;53.184;8.216;2024-01-10T11:54:37;13.60;;;7.63;;
1206;SDS011;593;53.184;8.216;2024-01-10T11:57:25;15.48;;;7.53;;
1206;SDS011;593;53.184;8.216;2024-01-10T11:59:53;12.75;;;7.07;;
1206;SDS011;593;53.184;8.216;2024-01-10T12:02:19;10.38;;;6.63;;
1206;SDS011;593;53.184;8.216;2024-01-10T12:04:49;13.05;;;7.15;;
1206;SDS011;593;53.184;8.216;2024-01-10T12:07:16;12.45;;;6.43;;
1206;SDS011;593;53.184;8.216;2024-01-10T12:09:42;11.95;;;7.75;;
1206;SDS011;593;53.184;8.216;2024-01-10T12:12:08;12.77;;;7.17;;
1206;SDS011;593;53.184;8.216;2024-01-10T12:14:36;8.50;;;6.72;;
1206;SDS011;593;53.184;8.216;2024-01-10T12:17:02;13.23;;;7.90;;
1206;SDS011;593;53.184;8.216;2024-01-10T12:19:29;15.48;;;7.50;;
1206;SDS011;593;53.184;8.216;2024-01-10T12:21:55;11.00;;;7.10;;
1206;SDS011;593;53.184;8.216;2024-01-10T12:24:20;10.97;;;7.33;;
1206;SDS011;593;53.184;8.216;2024-01-10T12:26:46;10.43;;;6.70;;
1206;SDS011;593;53.184;8.216;2024-01-10T12:29:13;10.88;;;6.45;;
1206;SDS011;593;53.184;8.216;2024-01-10T12:31:42;11.20;;;7.28;;
1206;SDS011;593;53.184;8.216;2024-01-10T12:34:09;11.82;;;7.75;;
1206;SDS011;593;53.184;8.216;2024-01-10T12:36:35;13.18;;;6.40;;
1206;SDS011;593;53.184;8.216;2024-01-10T12:39:01;13.60;;;7.90;;
1206;SDS011;593;53.184;8.216;2024-01-10T12:41:26;11.20;;;6.60;;
1206;SDS011;593;53.184;8.216;2024-01-10T12:43:52;10.70;;;7.47;;
1206;SDS011;593;53.184;8.216;2024-01-10T12:46:20;13.57;;;7.10;;
1206;SDS011;593;53.184;8.216;2024-01-10T12:48:49;10.02;;;6.13;;
1206;SDS011;593;53.184;8.216;2024-01-10T12:51:30;9.50;;;6.40;;
1206;SDS011;593;53.184;8.216;2024-01-10T12:53:57;9.25;;;5.32;;
1206;SDS011;593;53.184;8.216;2024-01-10T12:56:26;11.65;;;6.90;;
1206;SDS011;593;53.184;8.216;2024-01-10T12:58:53;9.63;;;6.25;;
1206;SDS011;593;53.184;8.216;2024-01-10T13:01:20;10.98;;;6.13;;
1206;SDS011;593;53.184;8.216;2024-01-10T13:03:46;11.10;;;6.97;;
1206;SDS011;593;53.184;8.216;2024-01-10T13:06:13;10.85;;;7.18;;
1206;SDS011;593;53.184;8.216;2024-01-10T13:08:39;8.23;;;6.17;;
1206;SDS011;593;53.184;8.216;2024-01-10T13:11:04;16.80;;;7.30;;
1206;SDS011;593;53.184;8.216;2024-01-10T13:13:33;7.78;;;5.13;;
1206;SDS011;593;53.184;8.216;2024-01-10T13:15:59;14.60;;;7.22;;
1206;SDS011;593;53.184;8.216;2024-01-10T13:18:25;10.67;;;5.80;;
1206;SDS011;593;53.184;8.216;2024-01-10T13:20:53;8.68;;;6.50;;
1206;SDS011;593;53.184;8.216;2024-01-10T13:23:19;8.90;;;5.60;;
1206;SDS011;593;53.184;8.216;2024-01-10T13:25:47;8.27;;;5.97;;
1206;SDS011;593;53.184;8.216;2024-01-10T13:28:13;12.55;;;5.93;;
1206;SDS011;593;53.184;8.216;2024-01-10T13:30:39;15.37;;;6.43;;
1206;SDS011;593;53.184;8.216;2024-01-10T13:33:06;7.32;;;5.60;;
1206;SDS011;593;53.184;8.216;2024-01-10T13:35:32;10.15;;;6.22;;
1206;SDS011;593;53.184;8.216;2024-01-10T13:37:58;9.65;;;5.88;;
1206;SDS011;593;53.184;8.216;2024-01-10T13:40:24;10.90;;;6.90;;
1206;SDS011;593;53.184;8.216;2024-01-10T13:42:52;13.88;;;7.22;;
1206;SDS011;593;53.184;8.216;2024-01-10T13:45:18;10.50;;;5.95;;
1206;SDS011;593;53.184;8.216;2024-01-10T13:47:44;9.55;;;5.80;;
1206;SDS011;593;53.184;8.216;2024-01-10T13:50:09;8.47;;;6.27;;
1206;SDS011;593;53.184;8.216;2024-01-10T13:52:35;10.27;;;5.97;;
1206;SDS011;593;53.184;8.216;2024-01-10T13:55:01;17.70;;;6.40;;
1206;SDS011;593;53.184;8.216;2024-01-10T13:57:29;8.50;;;6.63;;
1206;SDS011;593;53.184;8.216;2024-01-10T13:59:55;7.20;;;5.80;;
1206;SDS011;593;53.184;8.216;2024-01-10T14:02:21;10.60;;;6.90;;
1206;SDS011;593;53.184;8.216;2024-01-10T14:04:47;9.75;;;6.45;;
1206;SDS011;593;53.184;8.216;2024-01-10T14:07:13;6.83;;;5.47;;
1206;SDS011;593;53.184;8.216;2024-01-10T14:09:38;10.70;;;6.73;;
1206;SDS011;593;53.184;8.216;2024-01-10T14:12:04;7.70;;;5.70;;
1206;SDS011;593;53.184;8.216;2024-01-10T14:14:29;7.50;;;5.20;;
1206;SDS011;593;53.184;8.216;2024-01-10T14:16:57;7.45;;;4.72;;
1206;SDS011;593;53.184;8.216;2024-01-10T14:19:22;7.63;;;5.17;;
1206;SDS011;593;53.184;8.216;2024-01-10T14:21:48;7.90;;;5.47;;
1206;SDS011;593;53.184;8.216;2024-01-10T14:24:13;11.90;;;7.00;;
1206;SDS011;593;53.184;8.216;2024-01-10T14:26:39;10.30;;;6.37;;
1206;SDS011;593;53.184;8.216;2024-01-10T14:29:04;12.60;;;7.23;;
1206;SDS011;593;53.184;8.216;2024-01-10T14:31:30;9.97;;;7.23;;
1206;SDS011;593;53.184;8.216;2024-01-10T14:33:55;11.33;;;7.10;;
1206;SDS011;593;53.184;8.216;2024-01-10T14:36:21;12.00;;;7.05;;
1206;SDS011;593;53.184;8.216;2024-01-10T14:38:47;8.70;;;6.57;;
1206;SDS011;593;53.184;8.216;2024-01-10T14:41:12;12.47;;;6.67;;
1206;SDS011;593;53.184;8.216;2024-01-10T14:43:37;13.57;;;7.77;;
1206;SDS011;593;53.184;8.216;2024-01-10T14:46:03;13.60;;;7.07;;
1206;SDS011;593;53.184;8.216;2024-01-10T14:48:30;13.68;;;8.63;;
1206;SDS011;593;53.184;8.216;2024-01-10T14:50:59;12.73;;;8.55;;
1206;SDS011;593;53.184;8.216;2024-01-10T14:53:29;14.93;;;7.40;;
1206;SDS011;593;53.184;8.216;2024-01-10T14:55:55;11.57;;;9.17;;
1206;SDS011;593;53.184;8.216;2024-01-10T14:58:20;12.80;;;9.70;;
1206;SDS011;593;53.184;8.216;2024-01-10T15:00:46;13.80;;;9.13;;
1206;SDS011;593;53.184;8.216;2024-01-10T15:03:11;15.90;;;9.13;;
1206;SDS011;593;53.184;8.216;2024-01-10T15:05:38;17.40;;;10.60;;
1206;SDS011;593;53.184;8.216;2024-01-10T15:08:05;10.95;;;8.27;;
1206;SDS011;593;53.184;8.216;2024-01-10T15:10:32;16.25;;;10.13;;
1206;SDS011;593;53.184;8.216;2024-01-10T15:12:58;13.40;;;9.90;;
1206;SDS011;593;53.184;8.216;2024-01-10T15:15:24;14.90;;;10.07;;
1206;SDS011;593;53.184;8.216;2024-01-10T15:17:49;16.20;;;9.10;;